• Join FlightAware (Why Join?)
  • Login
  • US Flag 
01:13AM EDT


 

Airport Tracker/Info


-or-


 

Live Flight TrackerFlight Track Log ✈ EJM249 ✈ 24-Sep-2013 ✈ KSTP - KIAD

Flight Track Log - Related Links

Times and Time Zones

All times are in EDT time to prevent confusion due to time zone crossing. See the EJM249 flight status page for this flight to view local times or setup timezone preferences in your user account.

Time Position Orientation Groundspeed Altitude Reporting Facility
EDT Latitude Longitude Course Direction KTS MPH feet Rate Location/Type
08:53AM 44.9167 -92.9833 90° East 214 246 2,600  Level Minneapolis TRACON
08:54AM 44.9167 -92.9000 90° East 227 261 3,200 1,080 Climbing Minneapolis TRACON
08:55AM 44.8631 -92.8406 142° Southeast 268 308 5,200 1,560 Climbing Minneapolis Center
08:56AM 44.7869 -92.8453 183° South 273 314 6,900 1,860 Climbing Minneapolis Center
08:57AM 44.7119 -92.8536 185° South 269 310 9,100 2,580 Climbing Minneapolis Center
08:58AM 44.6517 -92.8067 151° Southeast 270 311 12,200 2,700 Climbing Minneapolis Center
08:59AM 44.6631 -92.6844 82° East 329 379 14,900 2,940 Climbing Minneapolis Center
09:00AM 44.6797 -92.5219 82° East 355 409 18,500 3,060 Climbing Minneapolis Center
09:01AM 44.6528 -92.3931 106° East 348 400 21,200 2,820 Climbing Minneapolis Center
09:02AM 44.5936 -92.2783 126° Southeast 358 412 24,300 2,760 Climbing Minneapolis Center
09:03AM 44.5333 -92.1631 126° Southeast 364 419 26,900 2,340 Climbing Minneapolis Center
09:04AM 44.4692 -92.0394 126° Southeast 381 438 29,200 2,040 Climbing Minneapolis Center
09:05AM 44.4022 -91.9117 126° Southeast 399 459 31,100 1,800 Climbing Minneapolis Center
09:06AM 44.3389 -91.7731 123° Southeast 416 479 33,000 1,980 Climbing Minneapolis Center
09:07AM 44.2719 -91.5908 117° Southeast 436 502 35,300 2,280 Climbing Minneapolis Center
09:09AM 44.2158 -91.4461 118° Southeast 432 497 37,700 1,980 Climbing Minneapolis Center
09:10AM 44.1600 -91.3014 118° Southeast 427 491 39,400 1,440 Climbing Minneapolis Center
09:11AM 44.1053 -91.1586 118° Southeast 430 495 40,700 780 Climbing Minneapolis Center
09:12AM 44.0478 -91.0103 118° Southeast 436 502 41,000 120 Climbing Minneapolis Center
09:13AM 43.9900 -90.8436 116° Southeast 476 548 41,000  Level Minneapolis Center
09:14AM 43.9353 -90.6786 115° Southeast 473 544 41,000  Level Minneapolis Center
09:15AM 43.8686 -90.4811 115° Southeast 474 545 41,000  Level Minneapolis Center
09:16AM 43.8122 -90.3164 115° Southeast 476 548 41,000  Level Minneapolis Center
09:17AM 43.7694 -90.1858 114° Southeast 475 547 41,000  Level Chicago Center
09:18AM 43.7147 -90.0222 115° Southeast 473 544 41,000  Level Chicago Center
09:19AM 43.6458 -89.8244 116° Southeast 479 551 41,000  Level Chicago Center
09:20AM 43.5908 -89.6614 115° Southeast 475 547 41,000  Level Chicago Center
09:21AM 43.5347 -89.4994 115° Southeast 472 543 41,000  Level Chicago Center
09:22AM 43.4764 -89.3381 116° Southeast 474 545 41,000  Level Chicago Center
09:23AM 43.4197 -89.1775 116° Southeast 471 542 41,000  Level Chicago Center
09:24AM 43.3550 -88.9853 115° Southeast 466 536 41,000  Level Chicago Center
09:25AM 43.2925 -88.8133 116° Southeast 468 539 41,000  Level Chicago Center
09:26AM 43.2347 -88.6539 116° Southeast 468 539 41,000  Level Chicago Center
09:27AM 43.1781 -88.4917 116° Southeast 471 542 41,000  Level Chicago Center
09:28AM 43.1147 -88.3161 116° Southeast 473 544 41,000  Level Chicago Center
09:29AM 43.0561 -88.1572 117° Southeast 470 541 41,000  Level Chicago Center
09:30AM 42.9989 -87.9992 116° Southeast 466 536 41,000  Level Chicago Center
09:31AM 42.9403 -87.8403 117° Southeast 470 541 41,000  Level Chicago Center
09:32AM 42.8819 -87.6800 116° Southeast 472 543 41,000  Level Chicago Center
09:33AM 42.8219 -87.5208 117° Southeast 473 544 41,000  Level Chicago Center
09:34AM 42.7506 -87.3311 117° Southeast 471 542 41,000  Level Chicago Center
09:35AM 42.6906 -87.1717 117° Southeast 475 547 41,000  Level Chicago Center
09:36AM 42.6297 -87.0131 117° Southeast 476 548 41,000  Level Chicago Center
09:37AM 42.5653 -86.8442 117° Southeast 474 545 41,000  Level Chicago Center
09:38AM 42.5047 -86.6856 117° Southeast 474 545 41,000  Level Chicago Center
09:39AM 42.4372 -86.5094 117° Southeast 473 544 41,000  Level Chicago Center
09:40AM 42.3756 -86.3514 118° Southeast 478 550 41,000  Level Chicago Center
09:41AM 42.3139 -86.1958 118° Southeast 475 547 41,000  Level Chicago Center
09:42AM 42.2475 -86.0242 118° Southeast 479 551 41,000  Level Chicago Center
09:44AM 42.1889 -85.8789 119° Southeast 481 554 41,000  Level Chicago Center
09:45AM 42.1139 -85.6900 118° Southeast 481 554 41,000  Level Chicago Center
09:46AM 42.0511 -85.5314 118° Southeast 480 552 41,000  Level Chicago Center
09:47AM 41.9947 -85.3869 118° Southeast 480 552 41,000  Level Chicago Center
09:48AM 41.9169 -85.1928 118° Southeast 485 558 41,000  Level Chicago Center
09:49AM 41.8522 -85.0303 118° Southeast 487 560 41,000  Level Chicago Center
09:50AM 41.7861 -84.8678 119° Southeast 493 567 41,000  Level Chicago Center
09:51AM 41.7197 -84.7081 119° Southeast 490 564 41,000  Level Chicago Center
09:52AM 41.6539 -84.5500 119° Southeast 487 560 41,000  Level Chicago Center
09:53AM 41.5764 -84.3992 124° Southeast 489 563 41,000  Level Chicago Center
09:54AM 41.4986 -84.2517 125° Southeast 487 560 41,000  Level Chicago Center
09:55AM 41.4142 -84.0933 125° Southeast 492 566 41,000  Level Cleveland Center
09:56AM 41.3419 -83.9528 124° Southeast 491 565 41,000  Level Cleveland Center
09:57AM 41.2600 -83.7964 125° Southeast 490 564 41,000  Level Cleveland Center
09:58AM 41.1831 -83.6469 124° Southeast 491 565 41,000  Level Cleveland Center
09:59AM 41.0931 -83.4725 124° Southeast 491 565 41,000  Level Cleveland Center
10:00AM 41.0164 -83.3206 124° Southeast 491 565 41,000  Level Cleveland Center
10:01AM 40.9392 -83.1700 124° Southeast 490 564 41,000  Level Cleveland Center
10:02AM 40.8622 -83.0178 124° Southeast 493 567 41,000  Level Cleveland Center
10:03AM 40.8086 -82.8831 118° Southeast 497 572 41,000  Level Indianapolis Center
10:04AM 40.7447 -82.7214 118° Southeast 496 571 41,000  Level Indianapolis Center
10:05AM 40.6803 -82.5578 117° Southeast 499 574 41,000  Level Indianapolis Center
10:06AM 40.6144 -82.3958 118° Southeast 499 574 41,000  Level Indianapolis Center
10:07AM 40.5494 -82.2319 118° Southeast 502 578 41,000  Level Indianapolis Center
10:08AM 40.4394 -81.9592 118° Southeast 504 580 41,000  Level Cleveland Center
10:09AM 40.4064 -81.8789 118° Southeast 506 582 41,000  Level Indianapolis Center
10:10AM 40.3394 -81.7156 118° Southeast 506 582 41,000  Level Indianapolis Center
10:11AM 40.2725 -81.5511 118° Southeast 508 585 41,000 -300 Level Indianapolis Center
10:12AM 40.2036 -81.3861 119° Southeast 511 588 40,400 -1,140 Descending Indianapolis Center
10:13AM 40.1181 -81.2381 127° Southeast 509 586 38,700 -1,680 Descending Indianapolis Center
10:14AM 40.0289 -81.0975 130° Southeast 503 579 37,000 -1,560 Descending Indianapolis Center
10:15AM 39.9222 -80.9269 129° Southeast 510 587 35,500 -1,020 Descending Indianapolis Center
10:16AM 39.8308 -80.7819 129° Southeast 514 592 35,000 -300 Descending Indianapolis Center
10:17AM 39.7386 -80.6386 130° Southeast 515 593 35,000  Level Indianapolis Center
10:18AM 39.6919 -80.5603 128° Southeast 515 593 35,000  Level Cleveland Center
10:19AM 39.6300 -80.3942 116° Southeast 538 619 35,000  Level Cleveland Center
10:19AM 39.6086 -80.3067 108° East 521 600 35,000  Level Indianapolis Center
10:20AM 39.5883 -80.1231 98° East 515 593 35,000 -240 Level Indianapolis Center
10:21AM 39.5778 -80.0308 98° East 521 600 34,700 -2,760 Descending Cleveland Center
10:22AM 39.5503 -79.8167 99° East 509 586 30,700 -3,120 Descending Cleveland Center
10:23AM 39.5208 -79.6522 103° East 479 551 28,300 -1,920 Descending Cleveland Center
10:24AM 39.4997 -79.5211 102° East 467 537 27,000 -720 Descending Washington Center
10:25AM 39.4714 -79.3636 103° East 453 521 27,000 -840 Level Washington Center
10:26AM 39.4386 -79.2058 105° East 453 521 25,400 -1,920 Descending Washington Center
10:27AM 39.4117 -79.0594 103° East 441 507 23,300 -2,100 Descending Washington Center
10:28AM 39.3886 -78.9161 102° East 417 480 21,300 -2,040 Descending Washington Center
10:29AM 39.3611 -78.7778 104° East 406 467 19,200 -2,100 Descending Washington Center
10:30AM 39.3356 -78.6319 103° East 393 452 17,200 -1,980 Descending Washington Center
10:31AM 39.3117 -78.5022 103° East 377 434 15,300 -1,860 Descending Washington Center
10:32AM 39.2856 -78.3750 105° East 372 428 13,500 -1,740 Descending Washington Center
10:33AM 39.2381 -78.2714 121° Southeast 338 389 11,800 -1,560 Descending Washington Center
10:34AM 39.1878 -78.1811 126° Southeast 325 374 10,400 -960 Descending Washington Center
10:35AM 39.1397 -78.0911 125° Southeast 311 358 10,000 -480 Descending Washington Center
10:36AM 39.0914 -78.0011 125° Southeast 306 352 9,500 -1,020 Descending Washington Center
10:37AM 39.0453 -77.9142 124° Southeast 301 346 8,000 -1,380 Descending Washington Center
10:38AM 39.0072 -77.8381 123° Southeast 293 337 6,700 -1,020 Descending Washington Center
10:39AM 38.9672 -77.7408 118° Southeast 286 329 6,000 -360 Descending Washington Center
10:40AM 38.9436 -77.6575 110° East 273 314 6,000 -420 Level Washington Center
10:41AM 38.8833 -77.5833 136° Southeast 230 265 5,200 -480 Descending Potomac TRACON
10:42AM 38.8167 -77.5667 169° South 204 235 5,000 -480 Descending Potomac TRACON
10:43AM 38.8000 -77.5333 123° Southeast 207 238 4,300 -1,080 Descending Potomac TRACON
10:44AM 38.8167 -77.4667 72° East 198 228 3,000 -900 Descending Potomac TRACON
10:45AM 38.8667 -77.4667 360° North 154 177 2,600 -840 Descending Potomac TRACON
10:46AM 38.9000 -77.4667 360° North 126 145 1,500 -1,020 Descending Potomac TRACON
10:47AM 38.9333 -77.4667 360° North 121 139 700 -840 Descending Potomac TRACON
10:49AM 38.9333 -77.4500 165° South  Level FlightAware Approximate
10:56AM 38.9474 -77.4599 165° South  Level Estimated
10:57AM 38.9474 -77.4599 165° South  Level Estimated
10:58AM 38.9474 -77.4599 165° South  Level Estimated